Time;durP1;ratioP1;P1;durP2;ratioP2;P2;SDS_P1;SDS_P2;PMS_P1;PMS_P2;Temp;Humidity;BMP_temperature;BMP_pressure;BME280_temperature;BME280_humidity;BME280_pressure;Samples;Min_cycle;Max_cycle;Signal;HPM_P1;HPM_P2
2023/09/10 00:01:11;;;;;;;;;12.40;10.80;;;;;;;;5069562;28;8766;-78
2023/09/10 00:03:39;;;;;;;;;10.20;10.20;;;;;;;;5067879;28;8899;-79
2023/09/10 00:06:07;;;;;;;;;9.40;9.20;;;;;;;;5069115;28;8876;-78
2023/09/10 00:08:35;;;;;;;;;11.60;11.60;;;;;;;;5068194;28;8863;-77
2023/09/10 00:11:04;;;;;;;;;9.60;9.60;;;;;;;;5068998;28;8871;-77
2023/09/10 00:13:32;;;;;;;;;13.60;13.40;;;;;;;;5068364;28;8852;-77
2023/09/10 00:15:59;;;;;;;;;5.60;5.60;;;;;;;;5068254;28;8836;-77
2023/09/10 00:18:26;;;;;;;;;10.20;10.20;;;;;;;;5056557;28;8828;-78
2023/09/10 00:20:55;;;;;;;;;12.40;12.40;;;;;;;;5070302;28;8867;-77
2023/09/10 00:23:22;;;;;;;;;14.20;14.00;;;;;;;;5070288;28;8840;-78
2023/09/10 00:25:49;;;;;;;;;12.40;10.60;;;;;;;;5070177;28;8975;-77
2023/09/10 00:28:16;;;;;;;;;13.00;11.80;;;;;;;;5071927;28;8841;-76
2023/09/10 00:30:43;;;;;;;;;11.00;10.80;;;;;;;;5072972;28;8781;-77
2023/09/10 00:33:10;;;;;;;;;11.20;11.20;;;;;;;;5073920;28;8848;-78
2023/09/10 00:35:37;;;;;;;;;12.20;11.40;;;;;;;;5073467;28;8845;-77
2023/09/10 00:38:06;;;;;;;;;10.20;10.20;;;;;;;;5073205;28;8887;-78
2023/09/10 00:40:33;;;;;;;;;11.40;11.40;;;;;;;;5067618;28;8959;-78
2023/09/10 00:43:02;;;;;;;;;14.00;14.00;;;;;;;;5067491;28;8862;-79
2023/09/10 00:45:29;;;;;;;;;11.40;11.40;;;;;;;;5071143;28;8880;-78
2023/09/10 00:47:56;;;;;;;;;13.00;13.00;;;;;;;;5072156;28;9043;-79
2023/09/10 00:50:24;;;;;;;;;12.20;10.60;;;;;;;;5071705;28;8872;-77
2023/09/10 00:52:54;;;;;;;;;12.80;11.60;;;;;;;;5071935;28;8844;-78
2023/09/10 00:55:23;;;;;;;;;15.40;13.40;;;;;;;;5071667;28;8852;-77
2023/09/10 00:57:51;;;;;;;;;11.20;11.20;;;;;;;;5072588;28;8832;-77
2023/09/10 01:00:19;;;;;;;;;11.80;11.80;;;;;;;;5071033;28;8841;-79
2023/09/10 01:02:46;;;;;;;;;14.60;13.60;;;;;;;;5072037;28;8875;-77
2023/09/10 01:05:16;;;;;;;;;14.60;12.60;;;;;;;;5072518;28;8844;-78
2023/09/10 01:07:43;;;;;;;;;11.60;11.60;;;;;;;;5072844;28;8868;-78
2023/09/10 01:10:12;;;;;;;;;11.60;11.00;;;;;;;;5073216;28;8881;-78
2023/09/10 01:12:48;;;;;;;;;12.50;12.50;;;;;;;;5071917;28;8854;-79
2023/09/10 01:15:23;;;;;;;;;13.75;12.25;;;;;;;;5071183;28;8856;-78
2023/09/10 01:17:55;;;;;;;;;12.50;12.50;;;;;;;;5071734;28;8870;-79
2023/09/10 01:20:34;;;;;;;;;11.75;11.75;;;;;;;;5071192;28;8845;-77
2023/09/10 01:23:04;;;;;;;;;12.25;12.25;;;;;;;;5071365;28;8849;-78
2023/09/10 01:25:33;;;;;;;;;13.00;13.00;;;;;;;;5071253;28;8856;-79
2023/09/10 01:28:04;;;;;;;;;15.25;13.00;;;;;;;;5070861;28;8869;-78
2023/09/10 01:30:31;;;;;;;;;12.00;11.50;;;;;;;;5070571;28;8769;-78
2023/09/10 01:33:07;;;;;;;;;12.25;12.25;;;;;;;;5070907;28;8856;-79
2023/09/10 01:35:39;;;;;;;;;12.00;12.00;;;;;;;;5071191;28;8856;-78
2023/09/10 01:38:10;;;;;;;;;14.00;13.00;;;;;;;;5071065;28;8983;-79
2023/09/10 01:40:44;;;;;;;;;12.00;12.00;;;;;;;;5071149;28;8837;-79
2023/09/10 01:43:11;;;;;;;;;12.50;11.25;;;;;;;;5071255;28;8886;-79
2023/09/10 01:45:39;;;;;;;;;12.50;12.50;;;;;;;;5070904;28;9619;-79
2023/09/10 01:48:07;;;;;;;;;12.00;11.75;;;;;;;;5070935;28;8840;-78
2023/09/10 01:50:34;;;;;;;;;12.75;12.75;;;;;;;;5070634;28;8885;-78
2023/09/10 01:53:02;;;;;;;;;12.75;11.25;;;;;;;;5069914;28;8921;-78
2023/09/10 01:55:29;;;;;;;;;10.75;10.75;;;;;;;;5071074;28;8987;-78
2023/09/10 01:57:58;;;;;;;;;14.50;13.25;;;;;;;;5071670;28;8844;-77
2023/09/10 02:00:26;;;;;;;;;13.25;13.25;;;;;;;;5073641;28;8838;-78
2023/09/10 02:02:53;;;;;;;;;12.00;12.00;;;;;;;;5074625;28;8852;-78
2023/09/10 02:05:20;;;;;;;;;13.25;12.00;;;;;;;;5074433;28;8876;-78
2023/09/10 02:07:47;;;;;;;;;15.75;14.00;;;;;;;;5074786;28;8867;-78
2023/09/10 02:10:15;;;;;;;;;12.75;11.25;;;;;;;;5075968;28;9633;-77
2023/09/10 02:12:42;;;;;;;;;12.25;12.25;;;;;;;;5075251;28;8852;-77
2023/09/10 02:15:12;;;;;;;;;10.75;10.75;;;;;;;;5072330;28;8890;-77
2023/09/10 02:17:40;;;;;;;;;11.25;11.25;;;;;;;;5070454;28;8840;-80
2023/09/10 02:20:09;;;;;;;;;12.00;12.00;;;;;;;;5070799;28;8848;-78
2023/09/10 02:22:38;;;;;;;;;13.00;13.00;;;;;;;;5059601;28;8860;-78
2023/09/10 02:25:05;;;;;;;;;12.50;12.50;;;;;;;;5070667;28;9698;-78
2023/09/10 02:27:33;;;;;;;;;10.00;10.00;;;;;;;;5070208;28;9661;-79
2023/09/10 02:30:01;;;;;;;;;13.75;10.50;;;;;;;;5069808;28;8852;-81
2023/09/10 02:32:32;;;;;;;;;16.50;15.00;;;;;;;;5040939;28;8909;-81
2023/09/10 02:35:00;;;;;;;;;10.00;10.00;;;;;;;;5069729;28;8856;-79
2023/09/10 02:37:27;;;;;;;;;11.50;11.50;;;;;;;;5070145;28;8902;-78
2023/09/10 02:39:54;;;;;;;;;19.00;15.75;;;;;;;;5069393;28;8869;-79
2023/09/10 02:42:21;;;;;;;;;10.75;9.75;;;;;;;;5070718;28;8875;-78
2023/09/10 02:44:48;;;;;;;;;12.25;12.25;;;;;;;;5070585;28;8836;-78
2023/09/10 02:47:16;;;;;;;;;13.50;13.50;;;;;;;;5070122;28;8848;-78
2023/09/10 02:49:44;;;;;;;;;12.00;12.00;;;;;;;;5069641;28;8865;-77
2023/09/10 02:52:11;;;;;;;;;14.00;12.50;;;;;;;;5069648;28;8986;-77
2023/09/10 02:54:39;;;;;;;;;13.75;13.75;;;;;;;;5069199;28;8844;-79
2023/09/10 02:57:06;;;;;;;;;17.50;12.50;;;;;;;;5070091;28;8867;-80
2023/09/10 02:59:33;;;;;;;;;10.75;10.75;;;;;;;;5069059;28;8879;-78
2023/09/10 03:02:00;;;;;;;;;11.00;11.00;;;;;;;;5068960;28;8843;-78
2023/09/10 03:04:27;;;;;;;;;11.00;10.75;;;;;;;;5069045;28;8874;-78
2023/09/10 03:07:01;;;;;;;;;12.00;12.00;;;;;;;;5068478;28;8892;-79
2023/09/10 03:09:28;;;;;;;;;12.25;12.25;;;;;;;;5069140;28;8978;-78
2023/09/10 03:12:22;;;;;;;;;9.75;9.00;;;;;;;;5069160;28;8849;-78
2023/09/10 03:14:49;;;;;;;;;14.75;14.00;;;;;;;;5069131;28;8872;-78
2023/09/10 03:17:17;;;;;;;;;10.25;8.75;;;;;;;;5068130;28;8972;-79
2023/09/10 03:19:45;;;;;;;;;13.00;12.00;;;;;;;;5069636;28;8875;-77
2023/09/10 03:22:13;;;;;;;;;14.75;14.75;;;;;;;;5069208;28;9565;-78
2023/09/10 03:24:41;;;;;;;;;13.50;13.50;;;;;;;;5069576;28;8840;-78
2023/09/10 03:27:08;;;;;;;;;13.00;13.00;;;;;;;;5068661;28;8867;-77
2023/09/10 03:29:36;;;;;;;;;13.00;12.00;;;;;;;;5068832;28;8857;-76
2023/09/10 03:32:06;;;;;;;;;13.50;12.00;;;;;;;;5068730;28;8929;-78
2023/09/10 03:34:33;;;;;;;;;13.50;11.75;;;;;;;;5069062;28;8970;-78
2023/09/10 03:37:00;;;;;;;;;15.00;13.75;;;;;;;;5069078;28;8856;-78
2023/09/10 03:39:29;;;;;;;;;10.25;8.25;;;;;;;;5070646;28;8979;-77
2023/09/10 03:41:56;;;;;;;;;13.00;13.00;;;;;;;;5072468;28;8978;-77
2023/09/10 03:44:23;;;;;;;;;15.00;15.00;;;;;;;;5072626;28;8953;-77
2023/09/10 03:46:51;;;;;;;;;13.00;12.00;;;;;;;;5067230;28;8846;-77
2023/09/10 03:49:18;;;;;;;;;13.00;12.00;;;;;;;;5067175;28;8852;-78
2023/09/10 03:51:48;;;;;;;;;15.75;14.00;;;;;;;;5059587;28;8844;-77
2023/09/10 03:54:15;;;;;;;;;13.50;13.50;;;;;;;;5067716;28;8837;-78
2023/09/10 03:56:44;;;;;;;;;13.50;12.25;;;;;;;;5069429;28;8870;-78
2023/09/10 03:59:11;;;;;;;;;11.25;10.00;;;;;;;;5067966;28;8883;-78
2023/09/10 04:01:38;;;;;;;;;17.00;13.00;;;;;;;;5067406;28;8827;-79
2023/09/10 04:04:06;;;;;;;;;12.00;12.00;;;;;;;;5067272;28;8863;-78
2023/09/10 04:06:33;;;;;;;;;12.50;10.75;;;;;;;;5067732;28;8894;-77
2023/09/10 04:09:00;;;;;;;;;13.25;11.25;;;;;;;;5067636;28;8904;-77
2023/09/10 04:11:28;;;;;;;;;14.25;12.75;;;;;;;;5067603;28;8898;-77
2023/09/10 04:13:56;;;;;;;;;11.00;10.75;;;;;;;;5067377;28;9689;-78
2023/09/10 04:16:23;;;;;;;;;10.25;10.25;;;;;;;;5067761;28;8872;-78
2023/09/10 04:18:51;;;;;;;;;12.50;12.50;;;;;;;;5067628;28;8867;-78
2023/09/10 04:21:18;;;;;;;;;18.00;12.00;;;;;;;;5067808;28;8884;-80
2023/09/10 04:23:45;;;;;;;;;12.50;10.00;;;;;;;;5067539;28;9606;-80
2023/09/10 04:26:13;;;;;;;;;14.00;14.00;;;;;;;;5068091;28;8862;-79
2023/09/10 04:28:40;;;;;;;;;13.00;13.00;;;;;;;;5067419;28;8859;-79
2023/09/10 04:31:14;;;;;;;;;12.25;12.25;;;;;;;;5067360;28;8887;-78
2023/09/10 04:33:41;;;;;;;;;10.75;10.75;;;;;;;;5067171;28;9623;-79
2023/09/10 04:36:09;;;;;;;;;13.00;13.00;;;;;;;;5067673;28;8863;-78
2023/09/10 04:38:36;;;;;;;;;12.25;12.25;;;;;;;;5066601;28;8844;-77
2023/09/10 04:41:03;;;;;;;;;11.25;11.25;;;;;;;;5067656;28;8882;-77
2023/09/10 04:43:30;;;;;;;;;20.75;15.25;;;;;;;;5060619;28;8890;-79
2023/09/10 04:45:58;;;;;;;;;16.00;14.25;;;;;;;;5067478;28;8824;-78
2023/09/10 04:48:26;;;;;;;;;10.25;10.25;;;;;;;;5067176;28;8845;-78
2023/09/10 04:50:53;;;;;;;;;12.50;12.50;;;;;;;;5061464;28;8881;-77
2023/09/10 04:53:20;;;;;;;;;13.75;13.75;;;;;;;;5066518;28;8841;-78
2023/09/10 04:55:53;;;;;;;;;14.00;13.75;;;;;;;;5060510;28;8854;-77
2023/09/10 04:58:21;;;;;;;;;15.50;14.25;;;;;;;;5060693;28;8878;-77
2023/09/10 05:00:51;;;;;;;;;15.00;12.25;;;;;;;;5061703;28;8791;-78
2023/09/10 05:03:18;;;;;;;;;14.50;14.50;;;;;;;;5066903;28;8864;-77
2023/09/10 05:05:47;;;;;;;;;11.50;11.50;;;;;;;;5066864;28;8878;-77
2023/09/10 05:08:14;;;;;;;;;13.00;13.00;;;;;;;;5067434;28;8848;-76
2023/09/10 05:10:41;;;;;;;;;12.50;11.25;;;;;;;;5067736;28;8844;-77
2023/09/10 05:13:08;;;;;;;;;14.50;14.50;;;;;;;;5067976;28;8848;-76
2023/09/10 05:15:37;;;;;;;;;13.50;12.00;;;;;;;;5068503;28;8970;-70
2023/09/10 05:18:04;;;;;;;;;15.00;12.00;;;;;;;;5069510;28;8907;-70
2023/09/10 05:20:38;;;;;;;;;10.50;10.50;;;;;;;;5068586;28;8959;-72
2023/09/10 05:23:06;;;;;;;;;15.00;13.25;;;;;;;;5061955;28;8877;-71
2023/09/10 05:25:36;;;;;;;;;14.25;14.25;;;;;;;;5066341;28;8902;-71
2023/09/10 05:28:03;;;;;;;;;14.00;14.00;;;;;;;;5065619;28;8832;-70
2023/09/10 05:30:30;;;;;;;;;15.50;15.00;;;;;;;;5067125;28;8795;-72
2023/09/10 05:32:58;;;;;;;;;15.25;13.50;;;;;;;;5070226;28;8860;-72
2023/09/10 05:35:25;;;;;;;;;12.50;12.50;;;;;;;;5068258;28;8873;-71
2023/09/10 05:37:52;;;;;;;;;13.00;13.00;;;;;;;;5070422;28;8861;-73
2023/09/10 05:40:21;;;;;;;;;14.75;12.25;;;;;;;;5069577;28;8883;-73
2023/09/10 05:42:48;;;;;;;;;13.25;12.75;;;;;;;;5069841;28;8840;-71
2023/09/10 05:45:15;;;;;;;;;11.25;11.25;;;;;;;;5069505;28;8848;-72
2023/09/10 05:47:42;;;;;;;;;16.50;15.25;;;;;;;;5070155;28;8837;-73
2023/09/10 05:50:10;;;;;;;;;15.50;12.75;;;;;;;;5070080;28;8845;-74
2023/09/10 05:52:37;;;;;;;;;14.50;14.50;;;;;;;;5070236;28;8894;-75
2023/09/10 05:55:05;;;;;;;;;14.00;14.00;;;;;;;;5070486;28;8833;-71
2023/09/10 05:57:33;;;;;;;;;17.50;16.50;;;;;;;;5069302;28;8987;-71
2023/09/10 06:00:01;;;;;;;;;14.50;12.50;;;;;;;;5069767;28;9641;-71
2023/09/10 06:02:28;;;;;;;;;13.75;13.75;;;;;;;;5069315;28;9639;-72
2023/09/10 06:04:55;;;;;;;;;16.75;14.75;;;;;;;;5069444;28;8886;-73
2023/09/10 06:07:22;;;;;;;;;13.00;11.50;;;;;;;;5068916;28;8828;-72
2023/09/10 06:09:49;;;;;;;;;13.00;13.00;;;;;;;;5069571;28;8856;-70
2023/09/10 06:12:16;;;;;;;;;14.00;14.00;;;;;;;;5069155;28;8840;-69
2023/09/10 06:14:45;;;;;;;;;12.75;11.00;;;;;;;;5069579;28;8820;-71
2023/09/10 06:17:12;;;;;;;;;15.00;13.50;;;;;;;;5069132;28;8837;-76
2023/09/10 06:19:39;;;;;;;;;15.25;13.75;;;;;;;;5069527;28;8848;-74
2023/09/10 06:22:06;;;;;;;;;10.75;10.75;;;;;;;;5068433;28;9833;-73
2023/09/10 06:24:34;;;;;;;;;11.50;11.50;;;;;;;;5069213;28;8926;-71
2023/09/10 06:27:01;;;;;;;;;11.00;11.00;;;;;;;;5068935;28;9356;-69
2023/09/10 06:29:28;;;;;;;;;13.75;13.00;;;;;;;;5068779;28;8867;-70
2023/09/10 06:31:57;;;;;;;;;12.50;12.00;;;;;;;;5068393;28;8804;-71
2023/09/10 06:34:25;;;;;;;;;12.40;12.40;;;;;;;;5069106;28;8860;-78
2023/09/10 06:36:52;;;;;;;;;13.40;13.40;;;;;;;;5069838;28;8864;-78
2023/09/10 06:39:19;;;;;;;;;14.00;12.40;;;;;;;;5069072;28;8863;-78
2023/09/10 06:41:47;;;;;;;;;11.80;11.80;;;;;;;;5068534;28;8997;-77
2023/09/10 06:44:14;;;;;;;;;15.80;14.40;;;;;;;;5071034;28;8852;-78
2023/09/10 06:46:41;;;;;;;;;15.00;13.20;;;;;;;;5070112;28;8844;-78
2023/09/10 06:49:10;;;;;;;;;10.40;9.80;;;;;;;;5073497;28;8878;-78
2023/09/10 06:51:37;;;;;;;;;10.40;10.40;;;;;;;;5074271;28;8940;-76
2023/09/10 06:54:04;;;;;;;;;14.60;14.60;;;;;;;;5074695;28;8857;-78
2023/09/10 06:57:11;;;;;;;;;15.40;13.40;;;;;;;;5073553;28;8832;-78
2023/09/10 06:59:40;;;;;;;;;12.60;12.60;;;;;;;;5074178;28;8844;-77
2023/09/10 07:02:07;;;;;;;;;16.20;14.40;;;;;;;;5069981;28;8824;-80
2023/09/10 07:04:36;;;;;;;;;12.80;11.20;;;;;;;;5069031;28;8856;-79
2023/09/10 07:07:03;;;;;;;;;13.60;12.00;;;;;;;;5068878;28;8860;-79
2023/09/10 07:09:33;;;;;;;;;13.20;12.80;;;;;;;;5065566;28;8854;-78
2023/09/10 07:12:03;;;;;;;;;11.80;11.80;;;;;;;;5062464;28;8875;-81
2023/09/10 07:14:30;;;;;;;;;12.60;12.60;;;;;;;;5068524;28;8848;-80
2023/09/10 07:16:57;;;;;;;;;13.40;13.40;;;;;;;;5068249;28;8868;-79
2023/09/10 07:19:26;;;;;;;;;12.60;10.80;;;;;;;;5068652;28;8879;-80
2023/09/10 07:21:59;;;;;;;;;14.20;13.60;;;;;;;;5068162;28;8848;-79
2023/09/10 07:24:26;;;;;;;;;14.80;13.20;;;;;;;;5068407;28;8852;-79
2023/09/10 07:26:53;;;;;;;;;12.60;12.60;;;;;;;;5069430;28;8862;-79
2023/09/10 07:29:21;;;;;;;;;14.40;14.40;;;;;;;;5070355;28;8854;-80
2023/09/10 07:31:48;;;;;;;;;19.20;14.80;;;;;;;;5068425;28;8923;-78
2023/09/10 07:34:15;;;;;;;;;16.40;13.40;;;;;;;;5068492;28;8868;-78
2023/09/10 07:36:44;;;;;;;;;12.40;12.40;;;;;;;;5068069;28;8886;-78
2023/09/10 07:39:13;;;;;;;;;12.80;12.80;;;;;;;;5068981;28;8849;-81
2023/09/10 07:41:40;;;;;;;;;11.40;11.40;;;;;;;;5083624;28;8902;-79
2023/09/10 07:44:07;;;;;;;;;15.80;14.40;;;;;;;;5071159;28;8896;-79
2023/09/10 07:46:34;;;;;;;;;11.80;10.20;;;;;;;;5067614;28;8856;-79
2023/09/10 07:49:02;;;;;;;;;7.00;7.00;;;;;;;;5068683;28;8848;-79
2023/09/10 07:51:32;;;;;;;;;11.00;11.00;;;;;;;;5067670;28;8840;-80
2023/09/10 07:53:59;;;;;;;;;10.00;10.00;;;;;;;;5067185;28;8856;-79
2023/09/10 07:56:28;;;;;;;;;12.20;9.40;;;;;;;;5067089;28;8979;-79
2023/09/10 07:58:56;;;;;;;;;10.20;10.20;;;;;;;;5068896;28;8848;-79
2023/09/10 08:01:23;;;;;;;;;10.00;10.00;;;;;;;;5067099;28;8819;-80
2023/09/10 08:03:56;;;;;;;;;11.40;9.60;;;;;;;;5068399;28;8871;-79
2023/09/10 08:06:37;;;;;;;;;11.40;10.80;;;;;;;;5068437;28;8845;-79
2023/09/10 08:09:05;;;;;;;;;13.00;13.00;;;;;;;;5068775;28;9607;-79
2023/09/10 08:11:35;;;;;;;;;15.40;12.00;;;;;;;;5067765;28;8859;-80
2023/09/10 08:14:06;;;;;;;;;11.80;11.80;;;;;;;;5066970;28;8848;-79
2023/09/10 08:16:35;;;;;;;;;12.40;10.80;;;;;;;;5068692;28;8874;-79
2023/09/10 08:19:05;;;;;;;;;11.20;10.20;;;;;;;;5068256;28;8864;-78
2023/09/10 08:21:32;;;;;;;;;13.00;10.80;;;;;;;;5069165;28;8874;-79
2023/09/10 08:24:00;;;;;;;;;12.40;12.40;;;;;;;;5071645;28;8888;-79
2023/09/10 08:26:27;;;;;;;;;0.00;0.00;;;;;;;;5073911;28;8856;-80
2023/09/10 08:28:57;;;;;;;;;10.80;10.00;;;;;;;;5073395;28;8947;-79
2023/09/10 08:31:24;;;;;;;;;13.20;11.80;;;;;;;;5062388;28;8780;-80
2023/09/10 08:33:52;;;;;;;;;13.40;13.40;;;;;;;;5071472;28;8975;-77
2023/09/10 08:36:20;;;;;;;;;11.40;11.40;;;;;;;;5070338;28;8840;-82
2023/09/10 08:38:48;;;;;;;;;10.00;10.00;;;;;;;;5067797;28;8853;-82
2023/09/10 08:41:20;;;;;;;;;14.00;10.20;;;;;;;;5067757;28;8855;-82
2023/09/10 08:43:52;;;;;;;;;11.20;11.20;;;;;;;;5068418;28;8864;-81
2023/09/10 08:46:23;;;;;;;;;9.00;9.00;;;;;;;;5067897;28;9789;-82
2023/09/10 08:48:51;;;;;;;;;12.00;12.00;;;;;;;;5068659;28;8875;-85
2023/09/10 08:51:19;;;;;;;;;11.60;10.80;;;;;;;;5068017;28;8852;-83
2023/09/10 08:53:48;;;;;;;;;8.60;8.60;;;;;;;;5067909;28;8868;-80
2023/09/10 08:56:18;;;;;;;;;11.00;11.00;;;;;;;;5067229;28;8868;-83
2023/09/10 08:58:46;;;;;;;;;12.00;11.80;;;;;;;;5067764;28;8906;-82
2023/09/10 09:01:18;;;;;;;;;13.60;12.00;;;;;;;;5067117;28;8813;-84
2023/09/10 09:03:54;;;;;;;;;10.60;10.00;;;;;;;;5069600;28;8902;-82
2023/09/10 09:06:22;;;;;;;;;9.60;9.60;;;;;;;;5063726;28;8858;-81
2023/09/10 09:08:52;;;;;;;;;10.20;8.60;;;;;;;;5067805;28;9152;-82
2023/09/10 09:11:19;;;;;;;;;9.20;9.20;;;;;;;;5071040;28;8990;-80
2023/09/10 09:13:48;;;;;;;;;13.00;11.40;;;;;;;;5071773;28;8887;-82
2023/09/10 09:16:16;;;;;;;;;9.60;8.80;;;;;;;;5071394;28;8879;-82
2023/09/10 09:18:46;;;;;;;;;11.40;11.40;;;;;;;;5071653;28;8868;-81
2023/09/10 09:21:19;;;;;;;;;11.60;11.60;;;;;;;;5072364;28;8875;-81
2023/09/10 09:23:51;;;;;;;;;8.00;8.00;;;;;;;;5072854;28;8853;-83
2023/09/10 09:26:19;;;;;;;;;12.20;10.80;;;;;;;;5072989;28;8855;-82
2023/09/10 09:28:47;;;;;;;;;9.80;9.80;;;;;;;;5072917;28;8868;-82
2023/09/10 09:31:15;;;;;;;;;11.40;11.40;;;;;;;;5071609;28;8808;-80
2023/09/10 09:33:44;;;;;;;;;11.00;11.00;;;;;;;;5070428;28;8866;-78
2023/09/10 09:36:14;;;;;;;;;8.40;8.40;;;;;;;;5071417;28;8995;-80
2023/09/10 09:38:43;;;;;;;;;9.40;9.40;;;;;;;;5070236;28;8836;-78
2023/09/10 09:41:10;;;;;;;;;8.00;8.00;;;;;;;;5070675;28;8864;-79
2023/09/10 09:43:38;;;;;;;;;9.80;9.60;;;;;;;;5071404;28;8882;-80
2023/09/10 09:46:05;;;;;;;;;8.80;8.80;;;;;;;;5075556;28;8941;-79
2023/09/10 09:48:37;;;;;;;;;10.80;9.40;;;;;;;;5071385;28;8984;-79
2023/09/10 09:51:05;;;;;;;;;11.40;11.40;;;;;;;;5070635;28;8856;-79
2023/09/10 09:53:35;;;;;;;;;14.80;11.60;;;;;;;;5071121;28;8860;-80
2023/09/10 09:56:04;;;;;;;;;10.80;8.60;;;;;;;;5071836;28;8867;-80
2023/09/10 09:58:32;;;;;;;;;12.40;11.20;;;;;;;;5074431;28;8898;-80
2023/09/10 10:00:59;;;;;;;;;10.00;10.00;;;;;;;;5075488;28;8784;-78
2023/09/10 10:03:27;;;;;;;;;9.20;9.20;;;;;;;;5076496;28;8946;-79
2023/09/10 10:05:55;;;;;;;;;10.60;10.60;;;;;;;;5077021;28;8864;-81
2023/09/10 10:08:26;;;;;;;;;12.20;10.20;;;;;;;;5075985;28;8841;-79
2023/09/10 10:10:55;;;;;;;;;7.60;7.60;;;;;;;;5074044;28;8856;-83
2023/09/10 10:13:23;;;;;;;;;9.00;8.80;;;;;;;;5075568;28;8864;-83
2023/09/10 10:15:52;;;;;;;;;11.20;9.60;;;;;;;;5073304;28;8875;-83
2023/09/10 10:18:22;;;;;;;;;8.60;8.60;;;;;;;;5073202;28;8990;-84
2023/09/10 10:20:50;;;;;;;;;7.20;7.20;;;;;;;;5071229;28;8868;-83
2023/09/10 10:23:18;;;;;;;;;8.80;7.00;;;;;;;;5070450;28;8848;-81
2023/09/10 10:25:46;;;;;;;;;10.60;10.00;;;;;;;;5070230;28;8860;-80
2023/09/10 10:28:15;;;;;;;;;11.00;9.80;;;;;;;;5069799;28;8964;-80
2023/09/10 10:30:49;;;;;;;;;5.80;5.00;;;;;;;;5069430;28;8795;-82
2023/09/10 10:33:19;;;;;;;;;8.00;7.60;;;;;;;;5070320;28;8837;-83
2023/09/10 10:35:56;;;;;;;;;0.00;0.00;;;;;;;;5072116;28;8867;-81
2023/09/10 10:38:24;;;;;;;;;8.80;8.80;;;;;;;;5069781;28;8868;-82
2023/09/10 10:40:54;;;;;;;;;7.60;7.60;;;;;;;;5070634;28;8856;-87
2023/09/10 10:43:27;;;;;;;;;11.00;11.00;;;;;;;;5069238;28;8868;-79
2023/09/10 10:45:57;;;;;;;;;15.00;11.40;;;;;;;;5069404;28;8844;-79
2023/09/10 10:48:26;;;;;;;;;10.00;10.00;;;;;;;;5068729;28;8844;-84
2023/09/10 10:50:56;;;;;;;;;13.20;13.20;;;;;;;;5069585;28;8864;-80
2023/09/10 10:53:25;;;;;;;;;9.20;9.20;;;;;;;;5069295;28;8856;-78
2023/09/10 10:55:56;;;;;;;;;7.40;7.40;;;;;;;;5071193;28;8862;-79
2023/09/10 10:58:25;;;;;;;;;10.80;10.80;;;;;;;;5059776;28;8921;-83
2023/09/10 11:00:53;;;;;;;;;11.00;10.40;;;;;;;;5070174;28;8919;-79
2023/09/10 11:03:21;;;;;;;;;8.20;8.20;;;;;;;;5069674;28;8886;-79
2023/09/10 11:06:08;;;;;;;;;5.00;5.00;;;;;;;;5069043;28;8844;-81
2023/09/10 11:08:37;;;;;;;;;11.20;9.60;;;;;;;;5080075;28;8861;-79
2023/09/10 11:11:06;;;;;;;;;8.60;7.80;;;;;;;;5068255;28;8875;-80
2023/09/10 11:13:35;;;;;;;;;7.20;7.20;;;;;;;;5069442;28;8852;-79
2023/09/10 11:16:18;;;;;;;;;7.20;7.20;;;;;;;;5068665;28;9668;-79
2023/09/10 11:18:46;;;;;;;;;7.00;7.00;;;;;;;;5068506;28;8845;-81
2023/09/10 11:21:16;;;;;;;;;5.60;5.60;;;;;;;;5069229;28;8848;-79
2023/09/10 11:24:16;;;;;;;;;9.40;7.40;;;;;;;;5069095;28;8853;-80
2023/09/10 11:26:44;;;;;;;;;9.40;8.40;;;;;;;;5069896;28;8858;-79
2023/09/10 11:29:21;;;;;;;;;5.40;5.40;;;;;;;;5070456;28;8856;-78
2023/09/10 11:31:49;;;;;;;;;11.00;11.00;;;;;;;;5071812;28;8820;-79
2023/09/10 11:34:35;;;;;;;;;9.60;9.00;;;;;;;;5073560;28;8942;-78
2023/09/10 11:37:06;;;;;;;;;8.60;7.80;;;;;;;;5073593;28;8849;-79
2023/09/10 11:39:34;;;;;;;;;8.00;8.00;;;;;;;;5073344;28;8853;-78
2023/09/10 11:42:03;;;;;;;;;9.00;9.00;;;;;;;;5060191;28;8886;-79
2023/09/10 11:44:32;;;;;;;;;10.60;9.00;;;;;;;;5069401;28;8845;-81
2023/09/10 11:46:59;;;;;;;;;13.60;11.20;;;;;;;;5068048;28;8987;-80
2023/09/10 11:49:27;;;;;;;;;11.00;11.00;;;;;;;;5067317;28;8864;-81
2023/09/10 11:52:02;;;;;;;;;11.00;9.20;;;;;;;;5063303;28;8871;-80
2023/09/10 11:54:31;;;;;;;;;11.20;11.20;;;;;;;;5067949;28;8924;-81
2023/09/10 11:56:59;;;;;;;;;9.40;9.40;;;;;;;;5068446;28;8848;-82
2023/09/10 11:59:29;;;;;;;;;10.80;10.80;;;;;;;;5067540;28;8851;-82
2023/09/10 12:01:59;;;;;;;;;10.60;9.40;;;;;;;;5067527;28;8846;-82
2023/09/10 12:04:33;;;;;;;;;7.60;7.60;;;;;;;;5067843;28;8860;-82
2023/09/10 12:07:01;;;;;;;;;10.40;10.00;;;;;;;;5069080;28;8837;-81
2023/09/10 12:09:30;;;;;;;;;8.80;8.80;;;;;;;;5069438;28;8879;-81
2023/09/10 12:12:00;;;;;;;;;8.40;8.40;;;;;;;;5070080;28;8848;-81
2023/09/10 12:14:31;;;;;;;;;8.40;8.40;;;;;;;;5069503;28;8967;-81
2023/09/10 12:17:00;;;;;;;;;8.40;8.40;;;;;;;;5068041;28;8864;-80
2023/09/10 12:19:27;;;;;;;;;8.00;8.00;;;;;;;;5067294;28;8886;-81
2023/09/10 12:21:55;;;;;;;;;9.00;9.00;;;;;;;;5067625;28;8905;-79
2023/09/10 12:24:22;;;;;;;;;9.00;9.00;;;;;;;;5069091;28;8852;-80
2023/09/10 12:26:50;;;;;;;;;10.40;8.00;;;;;;;;5067686;28;8906;-82
2023/09/10 12:29:17;;;;;;;;;5.80;5.80;;;;;;;;5067107;28;8848;-80
2023/09/10 12:31:45;;;;;;;;;7.20;7.20;;;;;;;;5066765;28;8784;-79
2023/09/10 12:34:15;;;;;;;;;10.00;10.00;;;;;;;;5064204;28;9767;-79
2023/09/10 12:36:42;;;;;;;;;8.00;8.00;;;;;;;;5065687;28;8863;-80
2023/09/10 12:39:19;;;;;;;;;8.40;7.60;;;;;;;;5067584;28;8910;-80
2023/09/10 12:41:51;;;;;;;;;8.00;8.00;;;;;;;;5049132;28;8862;-82
2023/09/10 12:44:18;;;;;;;;;8.60;7.00;;;;;;;;5072173;28;8833;-82
2023/09/10 12:46:48;;;;;;;;;7.20;7.20;;;;;;;;5071691;28;8847;-81
2023/09/10 12:49:16;;;;;;;;;8.20;7.20;;;;;;;;5065533;28;8844;-81
2023/09/10 12:51:44;;;;;;;;;8.40;7.00;;;;;;;;5071904;28;8864;-81
2023/09/10 12:54:12;;;;;;;;;7.50;6.25;;;;;;;;5071358;28;8872;-81
2023/09/10 12:56:41;;;;;;;;;11.00;9.80;;;;;;;;5071052;28;8887;-81
2023/09/10 12:59:08;;;;;;;;;8.75;8.50;;;;;;;;5072024;28;8959;-80
2023/09/10 13:01:38;;;;;;;;;8.00;8.00;;;;;;;;5071747;28;8801;-81
2023/09/10 13:04:05;;;;;;;;;7.80;7.80;;;;;;;;5074053;28;8869;-82
2023/09/10 13:06:34;;;;;;;;;8.60;8.60;;;;;;;;5074490;28;8856;-80
2023/09/10 13:09:04;;;;;;;;;7.00;7.00;;;;;;;;5074009;28;8878;-80
2023/09/10 13:11:31;;;;;;;;;6.80;6.80;;;;;;;;5076933;28;8824;-81
2023/09/10 13:14:00;;;;;;;;;9.00;9.00;;;;;;;;5076286;28;8878;-81
2023/09/10 13:16:29;;;;;;;;;9.50;8.00;;;;;;;;5074796;28;8864;-81
2023/09/10 13:18:56;;;;;;;;;9.00;8.25;;;;;;;;5070455;28;9595;-84
2023/09/10 13:21:25;;;;;;;;;7.25;7.25;;;;;;;;5071541;28;8894;-80
2023/09/10 13:23:54;;;;;;;;;8.25;8.25;;;;;;;;5070781;28;8852;-80
2023/09/10 13:26:24;;;;;;;;;8.50;7.25;;;;;;;;5070666;28;8921;-81
2023/09/10 13:28:54;;;;;;;;;7.25;7.25;;;;;;;;5070731;28;8848;-81
2023/09/10 13:31:21;;;;;;;;;9.25;7.75;;;;;;;;5069843;28;8805;-80
2023/09/10 13:33:48;;;;;;;;;9.25;9.25;;;;;;;;5070488;28;8853;-81
2023/09/10 13:36:18;;;;;;;;;8.00;8.00;;;;;;;;5070307;28;9630;-80
2023/09/10 13:38:45;;;;;;;;;8.75;8.00;;;;;;;;5069938;28;9653;-83
2023/09/10 13:41:16;;;;;;;;;8.50;8.50;;;;;;;;5072201;28;8868;-81
2023/09/10 13:43:44;;;;;;;;;7.00;7.00;;;;;;;;5060371;28;8876;-81
2023/09/10 13:46:11;;;;;;;;;7.50;7.50;;;;;;;;5070509;28;8852;-83
2023/09/10 13:48:38;;;;;;;;;12.00;9.00;;;;;;;;5071302;28;8860;-82
2023/09/10 13:51:08;;;;;;;;;10.00;9.25;;;;;;;;5071527;28;9007;-81
2023/09/10 13:53:35;;;;;;;;;8.50;7.25;;;;;;;;5071907;28;8983;-83
2023/09/10 13:56:05;;;;;;;;;8.50;7.25;;;;;;;;5070689;28;8875;-82
2023/09/10 13:58:36;;;;;;;;;6.75;6.75;;;;;;;;5071048;28;8848;-84
2023/09/10 14:01:07;;;;;;;;;7.00;6.75;;;;;;;;5070371;28;8804;-83
2023/09/10 14:03:34;;;;;;;;;7.25;7.25;;;;;;;;5071784;28;8935;-82
2023/09/10 14:06:07;;;;;;;;;5.75;5.50;;;;;;;;5071531;28;8840;-83
2023/09/10 14:08:38;;;;;;;;;10.50;8.25;;;;;;;;5071250;28;8978;-81
2023/09/10 14:11:06;;;;;;;;;6.25;6.25;;;;;;;;5070811;28;8864;-81
2023/09/10 14:13:40;;;;;;;;;5.25;5.25;;;;;;;;5064491;28;8937;-82
2023/09/10 14:16:07;;;;;;;;;7.00;7.00;;;;;;;;5070213;28;8841;-83
2023/09/10 14:18:35;;;;;;;;;6.75;5.50;;;;;;;;5069977;28;8880;-83
2023/09/10 14:21:24;;;;;;;;;9.00;7.00;;;;;;;;5070920;28;8883;-82
2023/09/10 14:23:51;;;;;;;;;7.75;7.75;;;;;;;;5070775;28;8864;-81
2023/09/10 14:26:18;;;;;;;;;5.50;5.50;;;;;;;;5069746;28;8871;-82
2023/09/10 14:28:47;;;;;;;;;7.75;6.75;;;;;;;;5069848;28;8859;-81
2023/09/10 14:31:16;;;;;;;;;8.25;8.00;;;;;;;;5070001;28;8814;-80
2023/09/10 14:33:45;;;;;;;;;7.50;7.50;;;;;;;;5071183;28;8852;-80
2023/09/10 14:36:14;;;;;;;;;7.00;7.00;;;;;;;;5072001;28;9752;-80
2023/09/10 14:38:42;;;;;;;;;7.50;7.50;;;;;;;;5074450;28;9017;-79
2023/09/10 14:41:09;;;;;;;;;9.50;8.25;;;;;;;;5074316;28;8848;-79
2023/09/10 14:43:38;;;;;;;;;6.50;6.50;;;;;;;;5073841;28;8860;-80
2023/09/10 14:46:06;;;;;;;;;9.00;8.25;;;;;;;;5074329;28;8883;-79
2023/09/10 14:48:33;;;;;;;;;7.50;7.50;;;;;;;;5060502;28;8882;-80